sensor_id;sensor_type;location;lat;lon;timestamp;temperature;humidity
16485;DHT22;8353;47.856;12.344;2022-12-10T00:02:29;5.10;99.90
16485;DHT22;8353;47.856;12.344;2022-12-10T00:04:59;5.10;99.90
16485;DHT22;8353;47.856;12.344;2022-12-10T00:07:30;5.00;99.90
16485;DHT22;8353;47.856;12.344;2022-12-10T00:10:02;5.10;99.90
16485;DHT22;8353;47.856;12.344;2022-12-10T00:12:33;5.20;99.90
16485;DHT22;8353;47.856;12.344;2022-12-10T00:15:04;5.10;99.90
16485;DHT22;8353;47.856;12.344;2022-12-10T00:17:35;5.10;99.90
16485;DHT22;8353;47.856;12.344;2022-12-10T00:20:06;5.10;99.90
16485;DHT22;8353;47.856;12.344;2022-12-10T00:22:37;5.10;99.90
16485;DHT22;8353;47.856;12.344;2022-12-10T00:25:09;5.20;99.90
16485;DHT22;8353;47.856;12.344;2022-12-10T00:27:39;5.20;99.90
16485;DHT22;8353;47.856;12.344;2022-12-10T00:30:11;5.20;99.90
16485;DHT22;8353;47.856;12.344;2022-12-10T00:32:41;5.10;99.90
16485;DHT22;8353;47.856;12.344;2022-12-10T00:35:11;5.10;99.90
16485;DHT22;8353;47.856;12.344;2022-12-10T00:37:42;5.20;99.90
16485;DHT22;8353;47.856;12.344;2022-12-10T00:40:14;5.30;99.90
16485;DHT22;8353;47.856;12.344;2022-12-10T00:42:45;5.30;99.90
16485;DHT22;8353;47.856;12.344;2022-12-10T00:45:16;5.30;99.90
16485;DHT22;8353;47.856;12.344;2022-12-10T00:47:46;5.40;99.90
16485;DHT22;8353;47.856;12.344;2022-12-10T00:50:17;5.30;99.90
16485;DHT22;8353;47.856;12.344;2022-12-10T00:52:47;5.30;99.90
16485;DHT22;8353;47.856;12.344;2022-12-10T00:55:19;5.30;99.90
16485;DHT22;8353;47.856;12.344;2022-12-10T00:57:50;5.30;99.90
16485;DHT22;8353;47.856;12.344;2022-12-10T01:00:20;5.30;99.90
16485;DHT22;8353;47.856;12.344;2022-12-10T01:02:50;5.30;99.90
16485;DHT22;8353;47.856;12.344;2022-12-10T01:05:21;5.40;99.90
16485;DHT22;8353;47.856;12.344;2022-12-10T01:07:51;5.30;99.90
16485;DHT22;8353;47.856;12.344;2022-12-10T01:10:24;5.20;99.90
16485;DHT22;8353;47.856;12.344;2022-12-10T01:12:54;5.20;99.90
16485;DHT22;8353;47.856;12.344;2022-12-10T01:15:24;5.20;99.90
16485;DHT22;8353;47.856;12.344;2022-12-10T01:17:55;5.30;99.90
16485;DHT22;8353;47.856;12.344;2022-12-10T01:20:25;5.30;99.90
16485;DHT22;8353;47.856;12.344;2022-12-10T01:22:56;5.30;99.90
16485;DHT22;8353;47.856;12.344;2022-12-10T01:25:29;5.30;99.90
16485;DHT22;8353;47.856;12.344;2022-12-10T01:28:00;5.30;99.90
16485;DHT22;8353;47.856;12.344;2022-12-10T01:30:32;5.30;99.90
16485;DHT22;8353;47.856;12.344;2022-12-10T01:33:02;5.30;99.90
16485;DHT22;8353;47.856;12.344;2022-12-10T01:35:35;5.20;99.90
16485;DHT22;8353;47.856;12.344;2022-12-10T01:38:06;5.20;99.90
16485;DHT22;8353;47.856;12.344;2022-12-10T01:40:38;5.30;99.90
16485;DHT22;8353;47.856;12.344;2022-12-10T01:43:13;5.20;99.90
16485;DHT22;8353;47.856;12.344;2022-12-10T01:45:44;5.20;99.90
16485;DHT22;8353;47.856;12.344;2022-12-10T01:48:15;5.30;99.90
16485;DHT22;8353;47.856;12.344;2022-12-10T01:50:45;5.30;99.90
16485;DHT22;8353;47.856;12.344;2022-12-10T01:53:15;5.30;99.90
16485;DHT22;8353;47.856;12.344;2022-12-10T01:55:49;5.30;99.90
16485;DHT22;8353;47.856;12.344;2022-12-10T01:58:20;5.20;99.90
16485;DHT22;8353;47.856;12.344;2022-12-10T02:01:09;5.20;99.90
16485;DHT22;8353;47.856;12.344;2022-12-10T02:03:54;5.20;99.90
16485;DHT22;8353;47.856;12.344;2022-12-10T02:06:34;5.10;99.90
16485;DHT22;8353;47.856;12.344;2022-12-10T02:09:13;5.20;99.90
16485;DHT22;8353;47.856;12.344;2022-12-10T02:11:58;5.20;99.90
16485;DHT22;8353;47.856;12.344;2022-12-10T02:14:38;5.20;99.90
16485;DHT22;8353;47.856;12.344;2022-12-10T02:17:14;5.30;99.90
16485;DHT22;8353;47.856;12.344;2022-12-10T02:19:57;5.30;99.90
16485;DHT22;8353;47.856;12.344;2022-12-10T02:22:48;5.30;99.90
16485;DHT22;8353;47.856;12.344;2022-12-10T02:25:21;5.30;99.90
16485;DHT22;8353;47.856;12.344;2022-12-10T02:28:01;5.30;99.90
16485;DHT22;8353;47.856;12.344;2022-12-10T02:30:34;5.30;99.90
16485;DHT22;8353;47.856;12.344;2022-12-10T02:33:07;5.30;99.90
16485;DHT22;8353;47.856;12.344;2022-12-10T02:35:41;5.20;99.90
16485;DHT22;8353;47.856;12.344;2022-12-10T02:38:14;5.20;99.90
16485;DHT22;8353;47.856;12.344;2022-12-10T02:40:49;5.30;99.90
16485;DHT22;8353;47.856;12.344;2022-12-10T02:43:23;5.30;99.90
16485;DHT22;8353;47.856;12.344;2022-12-10T02:45:56;5.40;99.90
16485;DHT22;8353;47.856;12.344;2022-12-10T02:48:28;5.40;99.90
16485;DHT22;8353;47.856;12.344;2022-12-10T02:50:58;5.30;99.90
16485;DHT22;8353;47.856;12.344;2022-12-10T02:53:28;5.30;99.90
16485;DHT22;8353;47.856;12.344;2022-12-10T02:56:10;5.30;99.90
16485;DHT22;8353;47.856;12.344;2022-12-10T02:58:51;5.30;99.90
16485;DHT22;8353;47.856;12.344;2022-12-10T03:01:31;5.40;99.90
16485;DHT22;8353;47.856;12.344;2022-12-10T03:04:11;5.30;99.90
16485;DHT22;8353;47.856;12.344;2022-12-10T03:06:47;5.30;99.90
16485;DHT22;8353;47.856;12.344;2022-12-10T03:09:22;5.30;99.90
16485;DHT22;8353;47.856;12.344;2022-12-10T03:11:58;5.20;99.90
16485;DHT22;8353;47.856;12.344;2022-12-10T03:14:30;5.30;99.90
16485;DHT22;8353;47.856;12.344;2022-12-10T03:17:05;5.30;99.90
16485;DHT22;8353;47.856;12.344;2022-12-10T03:19:39;5.30;99.90
16485;DHT22;8353;47.856;12.344;2022-12-10T03:22:12;5.40;99.90
16485;DHT22;8353;47.856;12.344;2022-12-10T03:24:43;5.40;99.90
16485;DHT22;8353;47.856;12.344;2022-12-10T03:27:15;5.40;99.90
16485;DHT22;8353;47.856;12.344;2022-12-10T03:29:48;5.40;99.90
16485;DHT22;8353;47.856;12.344;2022-12-10T03:32:23;5.30;99.90
16485;DHT22;8353;47.856;12.344;2022-12-10T03:34:56;5.30;99.90
16485;DHT22;8353;47.856;12.344;2022-12-10T03:37:29;5.30;99.90
16485;DHT22;8353;47.856;12.344;2022-12-10T03:40:00;5.30;99.90
16485;DHT22;8353;47.856;12.344;2022-12-10T03:42:30;5.30;99.90
16485;DHT22;8353;47.856;12.344;2022-12-10T03:45:04;5.30;99.90
16485;DHT22;8353;47.856;12.344;2022-12-10T03:47:36;5.30;99.90
16485;DHT22;8353;47.856;12.344;2022-12-10T03:50:07;5.20;99.90
16485;DHT22;8353;47.856;12.344;2022-12-10T03:52:38;5.30;99.90
16485;DHT22;8353;47.856;12.344;2022-12-10T03:55:09;5.30;99.90
16485;DHT22;8353;47.856;12.344;2022-12-10T03:57:40;5.40;99.90
16485;DHT22;8353;47.856;12.344;2022-12-10T04:00:11;5.30;99.90
16485;DHT22;8353;47.856;12.344;2022-12-10T04:02:43;5.20;99.90
16485;DHT22;8353;47.856;12.344;2022-12-10T04:05:14;5.30;99.90
16485;DHT22;8353;47.856;12.344;2022-12-10T04:07:44;5.30;99.90
16485;DHT22;8353;47.856;12.344;2022-12-10T04:10:15;5.30;99.90
16485;DHT22;8353;47.856;12.344;2022-12-10T04:12:45;5.30;99.90
16485;DHT22;8353;47.856;12.344;2022-12-10T04:15:39;5.40;99.90
16485;DHT22;8353;47.856;12.344;2022-12-10T04:18:28;5.40;99.90
16485;DHT22;8353;47.856;12.344;2022-12-10T04:20:58;5.30;99.90
16485;DHT22;8353;47.856;12.344;2022-12-10T04:23:46;5.20;99.90
16485;DHT22;8353;47.856;12.344;2022-12-10T04:26:34;5.20;99.90
16485;DHT22;8353;47.856;12.344;2022-12-10T04:29:24;5.20;99.90
16485;DHT22;8353;47.856;12.344;2022-12-10T04:31:56;5.20;99.90
16485;DHT22;8353;47.856;12.344;2022-12-10T04:34:29;5.20;99.90
16485;DHT22;8353;47.856;12.344;2022-12-10T04:37:01;5.30;99.90
16485;DHT22;8353;47.856;12.344;2022-12-10T04:39:32;5.20;99.90
16485;DHT22;8353;47.856;12.344;2022-12-10T04:42:03;5.30;99.90
16485;DHT22;8353;47.856;12.344;2022-12-10T04:44:34;5.30;99.90
16485;DHT22;8353;47.856;12.344;2022-12-10T04:47:06;5.20;99.90
16485;DHT22;8353;47.856;12.344;2022-12-10T04:49:39;5.20;99.90
16485;DHT22;8353;47.856;12.344;2022-12-10T04:52:11;5.20;99.90
16485;DHT22;8353;47.856;12.344;2022-12-10T04:54:43;5.20;99.90
16485;DHT22;8353;47.856;12.344;2022-12-10T04:57:13;5.20;99.90
16485;DHT22;8353;47.856;12.344;2022-12-10T04:59:44;5.20;99.90
16485;DHT22;8353;47.856;12.344;2022-12-10T05:02:14;5.20;99.90
16485;DHT22;8353;47.856;12.344;2022-12-10T05:04:48;5.30;99.90
16485;DHT22;8353;47.856;12.344;2022-12-10T05:07:18;5.20;99.90
16485;DHT22;8353;47.856;12.344;2022-12-10T05:09:49;5.20;99.90
16485;DHT22;8353;47.856;12.344;2022-12-10T05:12:19;5.20;99.90
16485;DHT22;8353;47.856;12.344;2022-12-10T05:14:49;5.20;99.90
16485;DHT22;8353;47.856;12.344;2022-12-10T05:17:19;5.20;99.90
16485;DHT22;8353;47.856;12.344;2022-12-10T05:19:53;5.20;99.90
16485;DHT22;8353;47.856;12.344;2022-12-10T05:22:24;5.20;99.90
16485;DHT22;8353;47.856;12.344;2022-12-10T05:25:12;5.20;99.90
16485;DHT22;8353;47.856;12.344;2022-12-10T05:27:42;5.30;99.90
16485;DHT22;8353;47.856;12.344;2022-12-10T05:30:13;5.30;99.90
16485;DHT22;8353;47.856;12.344;2022-12-10T05:32:43;5.30;99.90
16485;DHT22;8353;47.856;12.344;2022-12-10T05:35:15;5.20;99.90
16485;DHT22;8353;47.856;12.344;2022-12-10T05:37:45;5.10;99.90
16485;DHT22;8353;47.856;12.344;2022-12-10T05:40:16;5.10;99.90
16485;DHT22;8353;47.856;12.344;2022-12-10T05:42:49;5.10;99.90
16485;DHT22;8353;47.856;12.344;2022-12-10T05:45:20;5.10;99.90
16485;DHT22;8353;47.856;12.344;2022-12-10T05:47:51;5.10;99.90
16485;DHT22;8353;47.856;12.344;2022-12-10T05:50:23;5.20;99.90
16485;DHT22;8353;47.856;12.344;2022-12-10T05:52:54;5.10;99.90
16485;DHT22;8353;47.856;12.344;2022-12-10T05:55:24;5.10;99.90
16485;DHT22;8353;47.856;12.344;2022-12-10T05:57:56;5.00;99.90
16485;DHT22;8353;47.856;12.344;2022-12-10T06:00:27;5.10;99.90
16485;DHT22;8353;47.856;12.344;2022-12-10T06:02:57;5.10;99.90
16485;DHT22;8353;47.856;12.344;2022-12-10T06:05:29;5.10;99.90
16485;DHT22;8353;47.856;12.344;2022-12-10T06:08:05;5.20;99.90
16485;DHT22;8353;47.856;12.344;2022-12-10T06:10:36;5.20;99.90
16485;DHT22;8353;47.856;12.344;2022-12-10T06:13:07;5.10;99.90
16485;DHT22;8353;47.856;12.344;2022-12-10T06:15:39;5.10;99.90
16485;DHT22;8353;47.856;12.344;2022-12-10T06:18:09;5.20;99.90
16485;DHT22;8353;47.856;12.344;2022-12-10T06:20:44;5.10;99.90
16485;DHT22;8353;47.856;12.344;2022-12-10T06:23:14;5.10;99.90
16485;DHT22;8353;47.856;12.344;2022-12-10T06:25:45;5.10;99.90
16485;DHT22;8353;47.856;12.344;2022-12-10T06:28:15;5.10;99.90
16485;DHT22;8353;47.856;12.344;2022-12-10T06:30:46;5.00;99.90
16485;DHT22;8353;47.856;12.344;2022-12-10T06:33:16;5.10;99.90
16485;DHT22;8353;47.856;12.344;2022-12-10T06:35:48;5.00;99.90
16485;DHT22;8353;47.856;12.344;2022-12-10T06:38:18;5.00;99.90
16485;DHT22;8353;47.856;12.344;2022-12-10T06:40:49;5.00;99.90
16485;DHT22;8353;47.856;12.344;2022-12-10T06:43:20;5.00;99.90
16485;DHT22;8353;47.856;12.344;2022-12-10T06:45:51;4.90;99.90
16485;DHT22;8353;47.856;12.344;2022-12-10T06:48:22;5.00;99.90
16485;DHT22;8353;47.856;12.344;2022-12-10T06:50:55;4.80;99.90
16485;DHT22;8353;47.856;12.344;2022-12-10T06:53:26;4.80;99.90
16485;DHT22;8353;47.856;12.344;2022-12-10T06:55:58;4.90;99.90
16485;DHT22;8353;47.856;12.344;2022-12-10T06:58:30;4.80;99.90
16485;DHT22;8353;47.856;12.344;2022-12-10T07:01:05;4.90;99.90
16485;DHT22;8353;47.856;12.344;2022-12-10T07:03:36;4.90;99.90
16485;DHT22;8353;47.856;12.344;2022-12-10T07:06:09;4.90;99.90
16485;DHT22;8353;47.856;12.344;2022-12-10T07:08:39;5.00;99.90
16485;DHT22;8353;47.856;12.344;2022-12-10T07:11:12;5.00;99.90
16485;DHT22;8353;47.856;12.344;2022-12-10T07:13:43;5.00;99.90
16485;DHT22;8353;47.856;12.344;2022-12-10T07:16:16;5.00;99.90
16485;DHT22;8353;47.856;12.344;2022-12-10T07:18:47;5.00;99.90
16485;DHT22;8353;47.856;12.344;2022-12-10T07:21:21;5.00;99.90
16485;DHT22;8353;47.856;12.344;2022-12-10T07:23:54;5.00;99.90
16485;DHT22;8353;47.856;12.344;2022-12-10T07:26:29;5.00;99.90
16485;DHT22;8353;47.856;12.344;2022-12-10T07:29:00;4.90;99.90
16485;DHT22;8353;47.856;12.344;2022-12-10T07:31:34;4.90;99.90
16485;DHT22;8353;47.856;12.344;2022-12-10T07:34:05;4.90;99.90
16485;DHT22;8353;47.856;12.344;2022-12-10T07:36:37;4.90;99.90
16485;DHT22;8353;47.856;12.344;2022-12-10T07:39:09;4.90;99.90
16485;DHT22;8353;47.856;12.344;2022-12-10T07:41:47;4.90;99.90
16485;DHT22;8353;47.856;12.344;2022-12-10T07:44:19;4.90;99.90
16485;DHT22;8353;47.856;12.344;2022-12-10T07:46:51;4.90;99.90
16485;DHT22;8353;47.856;12.344;2022-12-10T07:49:22;4.90;99.90
16485;DHT22;8353;47.856;12.344;2022-12-10T07:51:54;4.80;99.90
16485;DHT22;8353;47.856;12.344;2022-12-10T07:54:24;4.80;99.90
16485;DHT22;8353;47.856;12.344;2022-12-10T07:56:55;4.90;99.90
16485;DHT22;8353;47.856;12.344;2022-12-10T07:59:25;4.90;99.90
16485;DHT22;8353;47.856;12.344;2022-12-10T08:01:57;4.90;99.90
16485;DHT22;8353;47.856;12.344;2022-12-10T08:04:27;4.80;99.90
16485;DHT22;8353;47.856;12.344;2022-12-10T08:07:00;4.80;99.90
16485;DHT22;8353;47.856;12.344;2022-12-10T08:09:31;4.90;99.90
16485;DHT22;8353;47.856;12.344;2022-12-10T08:12:10;4.90;99.90
16485;DHT22;8353;47.856;12.344;2022-12-10T08:14:43;4.90;99.90
16485;DHT22;8353;47.856;12.344;2022-12-10T08:17:13;4.90;99.90
16485;DHT22;8353;47.856;12.344;2022-12-10T08:19:44;4.90;99.90
16485;DHT22;8353;47.856;12.344;2022-12-10T08:22:16;4.90;99.90
16485;DHT22;8353;47.856;12.344;2022-12-10T08:24:46;4.80;99.90
16485;DHT22;8353;47.856;12.344;2022-12-10T08:27:17;4.90;99.90
16485;DHT22;8353;47.856;12.344;2022-12-10T08:29:48;5.00;99.90
16485;DHT22;8353;47.856;12.344;2022-12-10T08:32:18;5.00;99.90
16485;DHT22;8353;47.856;12.344;2022-12-10T08:34:49;5.00;99.90
16485;DHT22;8353;47.856;12.344;2022-12-10T08:37:21;5.00;99.90
16485;DHT22;8353;47.856;12.344;2022-12-10T08:39:51;5.00;99.90
16485;DHT22;8353;47.856;12.344;2022-12-10T08:42:22;5.00;99.90
16485;DHT22;8353;47.856;12.344;2022-12-10T08:44:52;5.00;99.90
16485;DHT22;8353;47.856;12.344;2022-12-10T08:47:23;5.10;99.90
16485;DHT22;8353;47.856;12.344;2022-12-10T08:49:54;5.00;99.90
16485;DHT22;8353;47.856;12.344;2022-12-10T08:52:25;5.10;99.90
16485;DHT22;8353;47.856;12.344;2022-12-10T08:54:58;5.20;99.90
16485;DHT22;8353;47.856;12.344;2022-12-10T08:57:29;5.10;99.90
16485;DHT22;8353;47.856;12.344;2022-12-10T08:59:59;5.10;99.90
16485;DHT22;8353;47.856;12.344;2022-12-10T09:02:30;5.00;99.90
16485;DHT22;8353;47.856;12.344;2022-12-10T09:05:01;5.00;99.90
16485;DHT22;8353;47.856;12.344;2022-12-10T09:07:33;5.00;99.90
16485;DHT22;8353;47.856;12.344;2022-12-10T09:10:04;5.00;99.90
16485;DHT22;8353;47.856;12.344;2022-12-10T09:12:35;5.10;99.90
16485;DHT22;8353;47.856;12.344;2022-12-10T09:15:08;5.10;99.90
16485;DHT22;8353;47.856;12.344;2022-12-10T09:17:38;5.10;99.90
16485;DHT22;8353;47.856;12.344;2022-12-10T09:20:09;5.10;99.90
16485;DHT22;8353;47.856;12.344;2022-12-10T09:22:41;5.10;99.90
16485;DHT22;8353;47.856;12.344;2022-12-10T09:25:11;5.10;99.90
16485;DHT22;8353;47.856;12.344;2022-12-10T09:27:44;5.10;99.90
16485;DHT22;8353;47.856;12.344;2022-12-10T09:30:14;5.10;99.90
16485;DHT22;8353;47.856;12.344;2022-12-10T09:32:45;5.10;99.90
16485;DHT22;8353;47.856;12.344;2022-12-10T09:35:16;5.20;99.90
16485;DHT22;8353;47.856;12.344;2022-12-10T09:37:47;5.20;99.90
16485;DHT22;8353;47.856;12.344;2022-12-10T09:40:23;5.20;99.90
16485;DHT22;8353;47.856;12.344;2022-12-10T09:42:59;5.20;99.90
16485;DHT22;8353;47.856;12.344;2022-12-10T09:45:36;5.20;99.90
16485;DHT22;8353;47.856;12.344;2022-12-10T09:48:17;5.20;99.90
16485;DHT22;8353;47.856;12.344;2022-12-10T09:50:55;5.30;99.90
16485;DHT22;8353;47.856;12.344;2022-12-10T09:53:30;5.20;99.90
16485;DHT22;8353;47.856;12.344;2022-12-10T09:56:03;5.20;99.90
16485;DHT22;8353;47.856;12.344;2022-12-10T09:58:34;5.10;99.90
16485;DHT22;8353;47.856;12.344;2022-12-10T10:01:06;5.10;99.90
16485;DHT22;8353;47.856;12.344;2022-12-10T10:03:41;5.20;99.90
16485;DHT22;8353;47.856;12.344;2022-12-10T10:06:14;5.30;99.90
16485;DHT22;8353;47.856;12.344;2022-12-10T10:08:48;5.10;99.90
16485;DHT22;8353;47.856;12.344;2022-12-10T10:11:22;5.10;99.90
16485;DHT22;8353;47.856;12.344;2022-12-10T10:13:58;5.10;99.90
16485;DHT22;8353;47.856;12.344;2022-12-10T10:16:33;5.10;99.90
16485;DHT22;8353;47.856;12.344;2022-12-10T10:19:11;5.00;99.90
16485;DHT22;8353;47.856;12.344;2022-12-10T10:21:44;5.00;99.90
16485;DHT22;8353;47.856;12.344;2022-12-10T10:24:17;5.00;99.90
16485;DHT22;8353;47.856;12.344;2022-12-10T10:26:49;4.90;99.90
16485;DHT22;8353;47.856;12.344;2022-12-10T10:29:21;5.00;99.90
16485;DHT22;8353;47.856;12.344;2022-12-10T10:32:14;5.00;99.90
16485;DHT22;8353;47.856;12.344;2022-12-10T10:34:47;5.10;99.90
16485;DHT22;8353;47.856;12.344;2022-12-10T10:37:23;5.10;99.90
16485;DHT22;8353;47.856;12.344;2022-12-10T10:39:58;5.10;99.90
16485;DHT22;8353;47.856;12.344;2022-12-10T10:42:35;5.10;99.90
16485;DHT22;8353;47.856;12.344;2022-12-10T10:45:32;5.00;99.90
16485;DHT22;8353;47.856;12.344;2022-12-10T10:48:06;5.10;99.90
16485;DHT22;8353;47.856;12.344;2022-12-10T10:50:39;5.10;99.90
16485;DHT22;8353;47.856;12.344;2022-12-10T10:53:39;5.10;99.90
16485;DHT22;8353;47.856;12.344;2022-12-10T10:56:13;5.10;99.90
16485;DHT22;8353;47.856;12.344;2022-12-10T10:58:55;5.10;99.90
16485;DHT22;8353;47.856;12.344;2022-12-10T11:01:43;5.10;99.90
16485;DHT22;8353;47.856;12.344;2022-12-10T11:04:15;5.00;99.90
16485;DHT22;8353;47.856;12.344;2022-12-10T11:06:49;4.80;99.90
16485;DHT22;8353;47.856;12.344;2022-12-10T11:09:27;4.80;99.90
16485;DHT22;8353;47.856;12.344;2022-12-10T11:11:59;4.80;99.90
16485;DHT22;8353;47.856;12.344;2022-12-10T11:14:33;4.90;99.90
16485;DHT22;8353;47.856;12.344;2022-12-10T11:17:19;5.00;99.90
16485;DHT22;8353;47.856;12.344;2022-12-10T11:19:56;5.00;99.90
16485;DHT22;8353;47.856;12.344;2022-12-10T11:22:29;5.00;99.90
16485;DHT22;8353;47.856;12.344;2022-12-10T11:25:00;5.10;99.90
16485;DHT22;8353;47.856;12.344;2022-12-10T11:27:46;5.10;99.90
16485;DHT22;8353;47.856;12.344;2022-12-10T11:30:23;5.10;99.90
16485;DHT22;8353;47.856;12.344;2022-12-10T11:33:21;5.20;99.90
16485;DHT22;8353;47.856;12.344;2022-12-10T11:36:02;5.10;99.90
16485;DHT22;8353;47.856;12.344;2022-12-10T11:38:42;5.20;99.90
16485;DHT22;8353;47.856;12.344;2022-12-10T11:41:22;5.30;99.90
16485;DHT22;8353;47.856;12.344;2022-12-10T11:44:14;5.30;99.90
16485;DHT22;8353;47.856;12.344;2022-12-10T11:46:57;5.30;99.90
16485;DHT22;8353;47.856;12.344;2022-12-10T11:49:35;5.30;99.90
16485;DHT22;8353;47.856;12.344;2022-12-10T11:52:14;5.30;99.90
16485;DHT22;8353;47.856;12.344;2022-12-10T11:54:57;5.30;99.90
16485;DHT22;8353;47.856;12.344;2022-12-10T11:57:39;5.30;99.90
16485;DHT22;8353;47.856;12.344;2022-12-10T12:00:20;5.30;99.90
16485;DHT22;8353;47.856;12.344;2022-12-10T12:03:27;5.30;99.90
16485;DHT22;8353;47.856;12.344;2022-12-10T12:06:17;5.30;99.90
16485;DHT22;8353;47.856;12.344;2022-12-10T12:08:56;5.30;99.90
16485;DHT22;8353;47.856;12.344;2022-12-10T12:11:49;5.30;99.90
16485;DHT22;8353;47.856;12.344;2022-12-10T12:14:25;5.30;99.90
16485;DHT22;8353;47.856;12.344;2022-12-10T12:17:02;5.30;99.90
16485;DHT22;8353;47.856;12.344;2022-12-10T12:19:37;5.30;99.90
16485;DHT22;8353;47.856;12.344;2022-12-10T12:22:14;5.40;99.90
16485;DHT22;8353;47.856;12.344;2022-12-10T12:24:46;5.30;99.90
16485;DHT22;8353;47.856;12.344;2022-12-10T12:27:24;5.40;99.90
16485;DHT22;8353;47.856;12.344;2022-12-10T12:30:04;5.40;99.90
16485;DHT22;8353;47.856;12.344;2022-12-10T12:32:45;5.30;99.90
16485;DHT22;8353;47.856;12.344;2022-12-10T12:35:19;5.40;99.90
16485;DHT22;8353;47.856;12.344;2022-12-10T12:37:56;5.40;99.90
16485;DHT22;8353;47.856;12.344;2022-12-10T12:40:30;5.30;99.90
16485;DHT22;8353;47.856;12.344;2022-12-10T12:43:07;5.30;99.90
16485;DHT22;8353;47.856;12.344;2022-12-10T12:45:40;5.30;99.90
16485;DHT22;8353;47.856;12.344;2022-12-10T12:48:18;5.30;99.90
16485;DHT22;8353;47.856;12.344;2022-12-10T12:50:54;5.40;99.90
16485;DHT22;8353;47.856;12.344;2022-12-10T12:53:29;5.40;99.90
16485;DHT22;8353;47.856;12.344;2022-12-10T12:56:03;5.40;99.90
16485;DHT22;8353;47.856;12.344;2022-12-10T12:58:39;5.40;99.90
16485;DHT22;8353;47.856;12.344;2022-12-10T13:01:21;5.30;99.90
16485;DHT22;8353;47.856;12.344;2022-12-10T13:03:53;5.40;99.90
16485;DHT22;8353;47.856;12.344;2022-12-10T13:06:28;5.30;99.90
16485;DHT22;8353;47.856;12.344;2022-12-10T13:09:24;5.30;99.90
16485;DHT22;8353;47.856;12.344;2022-12-10T13:12:27;5.30;99.90
16485;DHT22;8353;47.856;12.344;2022-12-10T13:15:11;5.20;99.90
16485;DHT22;8353;47.856;12.344;2022-12-10T13:18:18;5.20;99.90
16485;DHT22;8353;47.856;12.344;2022-12-10T13:20:52;5.10;99.90
16485;DHT22;8353;47.856;12.344;2022-12-10T13:23:49;5.10;99.90
16485;DHT22;8353;47.856;12.344;2022-12-10T13:26:26;5.10;99.90
16485;DHT22;8353;47.856;12.344;2022-12-10T13:29:23;5.20;99.90
16485;DHT22;8353;47.856;12.344;2022-12-10T13:31:57;5.20;99.90
16485;DHT22;8353;47.856;12.344;2022-12-10T13:34:35;5.30;99.90
16485;DHT22;8353;47.856;12.344;2022-12-10T13:37:28;5.20;99.90
16485;DHT22;8353;47.856;12.344;2022-12-10T13:40:15;5.30;99.90
16485;DHT22;8353;47.856;12.344;2022-12-10T13:42:58;5.20;99.90
16485;DHT22;8353;47.856;12.344;2022-12-10T13:45:46;5.10;99.90
16485;DHT22;8353;47.856;12.344;2022-12-10T13:48:25;5.20;99.90
16485;DHT22;8353;47.856;12.344;2022-12-10T13:51:05;5.20;99.90
16485;DHT22;8353;47.856;12.344;2022-12-10T13:53:44;5.20;99.90
16485;DHT22;8353;47.856;12.344;2022-12-10T13:56:21;5.10;99.90
16485;DHT22;8353;47.856;12.344;2022-12-10T13:59:16;5.20;99.90
16485;DHT22;8353;47.856;12.344;2022-12-10T14:01:59;5.30;99.90
16485;DHT22;8353;47.856;12.344;2022-12-10T14:04:43;5.30;99.90
16485;DHT22;8353;47.856;12.344;2022-12-10T14:07:24;5.30;99.90
16485;DHT22;8353;47.856;12.344;2022-12-10T14:10:00;5.30;99.90
16485;DHT22;8353;47.856;12.344;2022-12-10T14:12:32;5.20;99.90
16485;DHT22;8353;47.856;12.344;2022-12-10T14:15:08;5.20;99.90
16485;DHT22;8353;47.856;12.344;2022-12-10T14:17:40;5.20;99.90
16485;DHT22;8353;47.856;12.344;2022-12-10T14:20:16;5.20;99.90
16485;DHT22;8353;47.856;12.344;2022-12-10T14:22:48;5.10;99.90
16485;DHT22;8353;47.856;12.344;2022-12-10T14:25:22;5.20;99.90
16485;DHT22;8353;47.856;12.344;2022-12-10T14:27:53;5.20;99.90
16485;DHT22;8353;47.856;12.344;2022-12-10T14:30:26;5.20;99.90
16485;DHT22;8353;47.856;12.344;2022-12-10T14:32:59;5.00;99.90
16485;DHT22;8353;47.856;12.344;2022-12-10T14:35:30;5.00;99.90
16485;DHT22;8353;47.856;12.344;2022-12-10T14:38:01;5.00;99.90
16485;DHT22;8353;47.856;12.344;2022-12-10T14:40:36;5.00;99.90
16485;DHT22;8353;47.856;12.344;2022-12-10T14:43:12;5.00;99.90
16485;DHT22;8353;47.856;12.344;2022-12-10T14:45:47;4.90;99.90
16485;DHT22;8353;47.856;12.344;2022-12-10T14:48:20;4.90;99.90
16485;DHT22;8353;47.856;12.344;2022-12-10T14:50:51;4.80;99.90
16485;DHT22;8353;47.856;12.344;2022-12-10T14:53:24;4.90;99.90
16485;DHT22;8353;47.856;12.344;2022-12-10T14:55:58;4.90;99.90
16485;DHT22;8353;47.856;12.344;2022-12-10T14:58:35;4.90;99.90
16485;DHT22;8353;47.856;12.344;2022-12-10T15:01:13;4.90;99.90
16485;DHT22;8353;47.856;12.344;2022-12-10T15:03:45;4.70;99.90
16485;DHT22;8353;47.856;12.344;2022-12-10T15:06:18;4.70;99.90
16485;DHT22;8353;47.856;12.344;2022-12-10T15:08:54;4.70;99.90
16485;DHT22;8353;47.856;12.344;2022-12-10T15:11:27;4.80;99.90
16485;DHT22;8353;47.856;12.344;2022-12-10T15:13:59;4.90;99.90
16485;DHT22;8353;47.856;12.344;2022-12-10T15:16:41;4.80;99.90
16485;DHT22;8353;47.856;12.344;2022-12-10T15:19:18;4.70;99.90
16485;DHT22;8353;47.856;12.344;2022-12-10T15:21:50;4.70;99.90
16485;DHT22;8353;47.856;12.344;2022-12-10T15:24:26;4.70;99.90
16485;DHT22;8353;47.856;12.344;2022-12-10T15:26:57;4.70;99.90
16485;DHT22;8353;47.856;12.344;2022-12-10T15:29:34;4.70;99.90
16485;DHT22;8353;47.856;12.344;2022-12-10T15:32:11;4.60;99.90
16485;DHT22;8353;47.856;12.344;2022-12-10T15:34:45;4.70;99.90
16485;DHT22;8353;47.856;12.344;2022-12-10T15:37:20;4.60;99.90
16485;DHT22;8353;47.856;12.344;2022-12-10T15:39:54;4.70;99.90
16485;DHT22;8353;47.856;12.344;2022-12-10T15:42:31;4.70;99.90
16485;DHT22;8353;47.856;12.344;2022-12-10T15:45:20;4.70;99.90
16485;DHT22;8353;47.856;12.344;2022-12-10T15:47:54;4.70;99.90
16485;DHT22;8353;47.856;12.344;2022-12-10T15:50:28;4.80;99.90
16485;DHT22;8353;47.856;12.344;2022-12-10T15:52:58;4.70;99.90
16485;DHT22;8353;47.856;12.344;2022-12-10T15:55:29;4.60;99.90
16485;DHT22;8353;47.856;12.344;2022-12-10T15:57:59;4.70;99.90
16485;DHT22;8353;47.856;12.344;2022-12-10T16:00:30;4.60;99.90
16485;DHT22;8353;47.856;12.344;2022-12-10T16:03:03;4.60;99.90
16485;DHT22;8353;47.856;12.344;2022-12-10T16:05:36;4.80;99.90
16485;DHT22;8353;47.856;12.344;2022-12-10T16:08:14;4.70;99.90
16485;DHT22;8353;47.856;12.344;2022-12-10T16:10:47;4.70;99.90
16485;DHT22;8353;47.856;12.344;2022-12-10T16:13:21;4.80;99.90
16485;DHT22;8353;47.856;12.344;2022-12-10T16:15:54;4.60;99.90
16485;DHT22;8353;47.856;12.344;2022-12-10T16:18:28;4.60;99.90
16485;DHT22;8353;47.856;12.344;2022-12-10T16:20:58;4.70;99.90
16485;DHT22;8353;47.856;12.344;2022-12-10T16:23:28;4.60;99.90
16485;DHT22;8353;47.856;12.344;2022-12-10T16:26:00;4.70;99.90
16485;DHT22;8353;47.856;12.344;2022-12-10T16:28:34;4.70;99.90
16485;DHT22;8353;47.856;12.344;2022-12-10T16:31:04;4.70;99.90
16485;DHT22;8353;47.856;12.344;2022-12-10T16:33:37;4.60;99.90